CheckWX is a tool to help pilots better visualize weather data.  It is not intended as a substitute for an official pre-flight weather briefing.

12:17:20 UTC

KGNV METAR
Gainesville Regional Airport
Gainesville, Florida, USA
Current

24 mins ago

KGNV 201153Z 00000KT 7SM CLR 23/22 A3014 RMK AO2 SLP202 60004 70036 T02280222 10239 20217 53014
Observed
Aug-20 @ 11:53 UTC
Visibility
7 SM
Flight Rules
VFR
Cloud Levels
  • Clear skies
Temperature
23°C / 73°F
Dewpoint
22°C / 72°F
Humidity
94%
Altimeter
30.14" Hg
Pressure
1020.62 hPa
24 Hour Rain
0.36"
Previous

1 hour ago

KGNV 201053Z 00000KT 8SM CLR 22/22 A3012 RMK AO2 SLP197 T02220217 $
Observed
Aug-20 @ 10:53 UTC
Visibility
8 SM
Flight Rules
VFR
Cloud Levels
  • Clear skies
Temperature
22°C / 72°F
Dewpoint
22°C / 72°F
Humidity
100%
Altimeter
30.12" Hg
Pressure
1020.02 hPa
Previous

2 hours ago

KGNV 200953Z AUTO 00000KT 10SM CLR 23/22 A3010 RMK AO2 SLP189 T02280222 $
Observed
Aug-20 @ 09:53 UTC
Visibility
10 SM
Flight Rules
VFR
Cloud Levels
  • Clear skies
Temperature
23°C / 73°F
Dewpoint
22°C / 72°F
Humidity
94%
Altimeter
30.1" Hg
Pressure
1019.32 hPa